sensor_id;sensor_type;location;lat;lon;timestamp;P1;durP1;ratioP1;P2;durP2;ratioP2
66402;SDS011;53212;52.112;5.144;2023-02-13T00:02:07;30.80;;;23.90;;
66402;SDS011;53212;52.112;5.144;2023-02-13T00:04:33;31.20;;;23.80;;
66402;SDS011;53212;52.112;5.144;2023-02-13T00:06:59;31.00;;;23.90;;
66402;SDS011;53212;52.112;5.144;2023-02-13T00:09:25;28.80;;;23.70;;
66402;SDS011;53212;52.112;5.144;2023-02-13T00:11:51;28.00;;;23.00;;
66402;SDS011;53212;52.112;5.144;2023-02-13T00:14:16;30.10;;;23.30;;
66402;SDS011;53212;52.112;5.144;2023-02-13T00:16:41;30.40;;;23.50;;
66402;SDS011;53212;52.112;5.144;2023-02-13T00:19:07;29.30;;;24.00;;
66402;SDS011;53212;52.112;5.144;2023-02-13T00:21:32;27.50;;;22.80;;
66402;SDS011;53212;52.112;5.144;2023-02-13T00:23:58;31.30;;;24.50;;
66402;SDS011;53212;52.112;5.144;2023-02-13T00:26:24;28.80;;;22.70;;
66402;SDS011;53212;52.112;5.144;2023-02-13T00:28:49;31.00;;;23.60;;
66402;SDS011;53212;52.112;5.144;2023-02-13T00:31:17;29.50;;;24.50;;
66402;SDS011;53212;52.112;5.144;2023-02-13T00:33:44;29.30;;;23.90;;
66402;SDS011;53212;52.112;5.144;2023-02-13T00:36:15;29.30;;;23.60;;
66402;SDS011;53212;52.112;5.144;2023-02-13T00:38:43;30.20;;;23.30;;
66402;SDS011;53212;52.112;5.144;2023-02-13T00:41:10;29.40;;;23.50;;
66402;SDS011;53212;52.112;5.144;2023-02-13T00:43:36;29.60;;;24.40;;
66402;SDS011;53212;52.112;5.144;2023-02-13T00:46:02;30.50;;;22.80;;
66402;SDS011;53212;52.112;5.144;2023-02-13T00:48:29;28.90;;;22.50;;
66402;SDS011;53212;52.112;5.144;2023-02-13T00:50:56;30.40;;;22.70;;
66402;SDS011;53212;52.112;5.144;2023-02-13T00:53:23;30.60;;;23.40;;
66402;SDS011;53212;52.112;5.144;2023-02-13T00:55:50;31.20;;;23.40;;
66402;SDS011;53212;52.112;5.144;2023-02-13T00:58:17;28.50;;;22.20;;
66402;SDS011;53212;52.112;5.144;2023-02-13T01:00:43;28.60;;;23.50;;
66402;SDS011;53212;52.112;5.144;2023-02-13T01:03:11;28.10;;;22.40;;
66402;SDS011;53212;52.112;5.144;2023-02-13T01:05:38;30.60;;;23.30;;
66402;SDS011;53212;52.112;5.144;2023-02-13T01:08:03;30.50;;;22.70;;
66402;SDS011;53212;52.112;5.144;2023-02-13T01:10:29;31.90;;;23.00;;
66402;SDS011;53212;52.112;5.144;2023-02-13T01:12:54;31.80;;;21.60;;
66402;SDS011;53212;52.112;5.144;2023-02-13T01:15:20;28.60;;;22.30;;
66402;SDS011;53212;52.112;5.144;2023-02-13T01:17:45;27.30;;;21.70;;
66402;SDS011;53212;52.112;5.144;2023-02-13T01:20:12;30.10;;;23.00;;
66402;SDS011;53212;52.112;5.144;2023-02-13T01:22:38;28.90;;;22.80;;
66402;SDS011;53212;52.112;5.144;2023-02-13T01:25:05;29.10;;;23.20;;
66402;SDS011;53212;52.112;5.144;2023-02-13T01:27:31;27.20;;;21.60;;
66402;SDS011;53212;52.112;5.144;2023-02-13T01:29:57;28.80;;;21.70;;
66402;SDS011;53212;52.112;5.144;2023-02-13T01:32:23;30.10;;;22.50;;
66402;SDS011;53212;52.112;5.144;2023-02-13T01:34:48;25.60;;;21.10;;
66402;SDS011;53212;52.112;5.144;2023-02-13T01:37:13;28.50;;;22.70;;
66402;SDS011;53212;52.112;5.144;2023-02-13T01:39:39;28.00;;;22.30;;
66402;SDS011;53212;52.112;5.144;2023-02-13T01:42:09;25.70;;;21.20;;
66402;SDS011;53212;52.112;5.144;2023-02-13T01:47:16;26.40;;;20.30;;
66402;SDS011;53212;52.112;5.144;2023-02-13T01:49:46;29.40;;;21.60;;
66402;SDS011;53212;52.112;5.144;2023-02-13T01:52:14;25.20;;;20.70;;
66402;SDS011;53212;52.112;5.144;2023-02-13T01:54:41;25.40;;;19.90;;
66402;SDS011;53212;52.112;5.144;2023-02-13T01:57:10;26.70;;;20.40;;
66402;SDS011;53212;52.112;5.144;2023-02-13T02:02:20;27.50;;;20.40;;
66402;SDS011;53212;52.112;5.144;2023-02-13T02:04:46;26.70;;;21.20;;
66402;SDS011;53212;52.112;5.144;2023-02-13T02:07:16;26.60;;;19.60;;
66402;SDS011;53212;52.112;5.144;2023-02-13T02:09:45;23.90;;;19.30;;
66402;SDS011;53212;52.112;5.144;2023-02-13T02:12:25;26.00;;;20.20;;
66402;SDS011;53212;52.112;5.144;2023-02-13T02:14:55;25.80;;;20.10;;
66402;SDS011;53212;52.112;5.144;2023-02-13T02:17:24;25.00;;;19.60;;
66402;SDS011;53212;52.112;5.144;2023-02-13T02:41:12;24.60;;;19.90;;
66402;SDS011;53212;52.112;5.144;2023-02-13T02:47:23;25.60;;;19.60;;
66402;SDS011;53212;52.112;5.144;2023-02-13T02:56:19;25.80;;;19.00;;
66402;SDS011;53212;52.112;5.144;2023-02-13T02:59:06;24.40;;;17.50;;
66402;SDS011;53212;52.112;5.144;2023-02-13T03:01:54;25.20;;;19.40;;
66402;SDS011;53212;52.112;5.144;2023-02-13T03:04:41;25.30;;;19.20;;
66402;SDS011;53212;52.112;5.144;2023-02-13T03:07:29;28.30;;;20.10;;
66402;SDS011;53212;52.112;5.144;2023-02-13T03:10:00;24.40;;;19.10;;
66402;SDS011;53212;52.112;5.144;2023-02-13T03:12:49;27.00;;;19.00;;
66402;SDS011;53212;52.112;5.144;2023-02-13T03:15:38;24.50;;;18.90;;
66402;SDS011;53212;52.112;5.144;2023-02-13T03:18:26;25.00;;;18.90;;
66402;SDS011;53212;52.112;5.144;2023-02-13T03:21:26;26.80;;;18.90;;
66402;SDS011;53212;52.112;5.144;2023-02-13T03:24:58;23.20;;;18.20;;
66402;SDS011;53212;52.112;5.144;2023-02-13T03:30:31;24.70;;;19.30;;
66402;SDS011;53212;52.112;5.144;2023-02-13T03:33:15;26.40;;;19.40;;
66402;SDS011;53212;52.112;5.144;2023-02-13T03:36:08;25.50;;;18.90;;
66402;SDS011;53212;52.112;5.144;2023-02-13T03:39:21;26.80;;;19.30;;
66402;SDS011;53212;52.112;5.144;2023-02-13T03:42:01;24.40;;;18.70;;
66402;SDS011;53212;52.112;5.144;2023-02-13T03:44:40;24.50;;;18.80;;
66402;SDS011;53212;52.112;5.144;2023-02-13T03:47:08;25.70;;;19.60;;
66402;SDS011;53212;52.112;5.144;2023-02-13T03:49:41;26.00;;;19.70;;
66402;SDS011;53212;52.112;5.144;2023-02-13T03:58:16;24.30;;;18.70;;
66402;SDS011;53212;52.112;5.144;2023-02-13T04:01:06;24.10;;;18.70;;
66402;SDS011;53212;52.112;5.144;2023-02-13T04:06:20;24.30;;;18.20;;
66402;SDS011;53212;52.112;5.144;2023-02-13T04:08:51;22.70;;;18.50;;
66402;SDS011;53212;52.112;5.144;2023-02-13T04:11:27;24.00;;;18.70;;
66402;SDS011;53212;52.112;5.144;2023-02-13T04:14:00;25.70;;;19.30;;
66402;SDS011;53212;52.112;5.144;2023-02-13T04:16:53;23.30;;;18.20;;
66402;SDS011;53212;52.112;5.144;2023-02-13T04:19:26;25.10;;;18.60;;
66402;SDS011;53212;52.112;5.144;2023-02-13T04:21:56;22.90;;;17.50;;
66402;SDS011;53212;52.112;5.144;2023-02-13T04:24:25;25.20;;;18.40;;
66402;SDS011;53212;52.112;5.144;2023-02-13T04:26:51;25.00;;;18.70;;
66402;SDS011;53212;52.112;5.144;2023-02-13T04:29:19;25.60;;;18.40;;
66402;SDS011;53212;52.112;5.144;2023-02-13T04:31:45;23.50;;;18.30;;
66402;SDS011;53212;52.112;5.144;2023-02-13T04:34:11;25.30;;;18.90;;
66402;SDS011;53212;52.112;5.144;2023-02-13T04:36:36;24.70;;;19.20;;
66402;SDS011;53212;52.112;5.144;2023-02-13T04:39:02;24.30;;;18.60;;
66402;SDS011;53212;52.112;5.144;2023-02-13T04:41:27;23.60;;;17.30;;
66402;SDS011;53212;52.112;5.144;2023-02-13T04:43:53;22.70;;;17.80;;
66402;SDS011;53212;52.112;5.144;2023-02-13T04:46:18;23.90;;;18.70;;
66402;SDS011;53212;52.112;5.144;2023-02-13T04:48:43;21.80;;;17.40;;
66402;SDS011;53212;52.112;5.144;2023-02-13T04:51:09;25.70;;;19.50;;
66402;SDS011;53212;52.112;5.144;2023-02-13T04:53:34;25.50;;;19.20;;
66402;SDS011;53212;52.112;5.144;2023-02-13T04:56:00;25.50;;;19.80;;
66402;SDS011;53212;52.112;5.144;2023-02-13T04:58:25;24.60;;;18.60;;
66402;SDS011;53212;52.112;5.144;2023-02-13T05:00:51;25.20;;;18.40;;
66402;SDS011;53212;52.112;5.144;2023-02-13T05:03:16;26.30;;;18.90;;
66402;SDS011;53212;52.112;5.144;2023-02-13T05:05:42;25.30;;;18.00;;
66402;SDS011;53212;52.112;5.144;2023-02-13T05:08:08;26.70;;;19.70;;
66402;SDS011;53212;52.112;5.144;2023-02-13T05:10:34;26.50;;;19.20;;
66402;SDS011;53212;52.112;5.144;2023-02-13T05:13:00;25.20;;;18.80;;
66402;SDS011;53212;52.112;5.144;2023-02-13T05:15:26;25.20;;;18.60;;
66402;SDS011;53212;52.112;5.144;2023-02-13T05:17:51;26.00;;;20.70;;
66402;SDS011;53212;52.112;5.144;2023-02-13T05:20:17;27.80;;;19.80;;
66402;SDS011;53212;52.112;5.144;2023-02-13T05:22:44;24.70;;;17.90;;
66402;SDS011;53212;52.112;5.144;2023-02-13T05:25:34;27.30;;;19.50;;
66402;SDS011;53212;52.112;5.144;2023-02-13T05:28:01;24.50;;;18.90;;
66402;SDS011;53212;52.112;5.144;2023-02-13T05:30:26;28.70;;;20.00;;
66402;SDS011;53212;52.112;5.144;2023-02-13T05:32:52;26.70;;;19.70;;
66402;SDS011;53212;52.112;5.144;2023-02-13T05:35:20;26.50;;;19.70;;
66402;SDS011;53212;52.112;5.144;2023-02-13T05:37:46;26.10;;;19.50;;
66402;SDS011;53212;52.112;5.144;2023-02-13T05:40:12;26.60;;;20.30;;
66402;SDS011;53212;52.112;5.144;2023-02-13T05:42:42;25.30;;;19.90;;
66402;SDS011;53212;52.112;5.144;2023-02-13T05:45:08;26.50;;;19.10;;
66402;SDS011;53212;52.112;5.144;2023-02-13T05:47:34;24.50;;;18.80;;
66402;SDS011;53212;52.112;5.144;2023-02-13T05:50:00;24.60;;;19.20;;
66402;SDS011;53212;52.112;5.144;2023-02-13T05:52:25;24.80;;;18.50;;
66402;SDS011;53212;52.112;5.144;2023-02-13T05:54:51;25.50;;;19.90;;
66402;SDS011;53212;52.112;5.144;2023-02-13T05:57:16;27.40;;;19.60;;
66402;SDS011;53212;52.112;5.144;2023-02-13T05:59:42;28.10;;;20.10;;
66402;SDS011;53212;52.112;5.144;2023-02-13T06:02:08;31.40;;;20.90;;
66402;SDS011;53212;52.112;5.144;2023-02-13T06:04:33;28.40;;;20.40;;
66402;SDS011;53212;52.112;5.144;2023-02-13T06:06:59;27.40;;;20.50;;
66402;SDS011;53212;52.112;5.144;2023-02-13T06:09:24;25.10;;;20.00;;
66402;SDS011;53212;52.112;5.144;2023-02-13T06:11:49;25.70;;;20.30;;
66402;SDS011;53212;52.112;5.144;2023-02-13T06:14:15;28.70;;;20.10;;
66402;SDS011;53212;52.112;5.144;2023-02-13T06:16:40;24.20;;;19.10;;
66402;SDS011;53212;52.112;5.144;2023-02-13T06:19:06;28.80;;;20.10;;
66402;SDS011;53212;52.112;5.144;2023-02-13T06:21:32;25.80;;;20.70;;
66402;SDS011;53212;52.112;5.144;2023-02-13T06:24:05;27.40;;;19.70;;
66402;SDS011;53212;52.112;5.144;2023-02-13T06:26:32;28.10;;;20.20;;
66402;SDS011;53212;52.112;5.144;2023-02-13T06:28:58;25.80;;;19.80;;
66402;SDS011;53212;52.112;5.144;2023-02-13T06:31:24;26.10;;;20.00;;
66402;SDS011;53212;52.112;5.144;2023-02-13T06:33:49;27.70;;;19.90;;
66402;SDS011;53212;52.112;5.144;2023-02-13T06:36:14;26.80;;;19.50;;
66402;SDS011;53212;52.112;5.144;2023-02-13T06:38:40;27.80;;;19.70;;
66402;SDS011;53212;52.112;5.144;2023-02-13T06:41:05;25.70;;;19.10;;
66402;SDS011;53212;52.112;5.144;2023-02-13T06:43:31;27.40;;;20.10;;
66402;SDS011;53212;52.112;5.144;2023-02-13T06:45:57;28.70;;;21.10;;
66402;SDS011;53212;52.112;5.144;2023-02-13T06:48:22;24.60;;;19.10;;
66402;SDS011;53212;52.112;5.144;2023-02-13T06:50:48;28.50;;;20.70;;
66402;SDS011;53212;52.112;5.144;2023-02-13T06:53:17;28.50;;;21.10;;
66402;SDS011;53212;52.112;5.144;2023-02-13T06:55:45;26.40;;;20.40;;
66402;SDS011;53212;52.112;5.144;2023-02-13T06:58:10;26.50;;;19.70;;
66402;SDS011;53212;52.112;5.144;2023-02-13T07:00:36;28.30;;;20.10;;
66402;SDS011;53212;52.112;5.144;2023-02-13T07:03:03;26.60;;;20.20;;
66402;SDS011;53212;52.112;5.144;2023-02-13T07:05:30;26.60;;;19.60;;
66402;SDS011;53212;52.112;5.144;2023-02-13T07:07:57;28.20;;;21.40;;
66402;SDS011;53212;52.112;5.144;2023-02-13T07:10:22;25.20;;;20.20;;
66402;SDS011;53212;52.112;5.144;2023-02-13T07:12:48;26.60;;;20.10;;
66402;SDS011;53212;52.112;5.144;2023-02-13T07:15:14;27.20;;;20.70;;
66402;SDS011;53212;52.112;5.144;2023-02-13T07:17:40;25.50;;;19.30;;
66402;SDS011;53212;52.112;5.144;2023-02-13T07:20:07;25.80;;;20.10;;
66402;SDS011;53212;52.112;5.144;2023-02-13T07:22:33;30.00;;;21.90;;
66402;SDS011;53212;52.112;5.144;2023-02-13T07:24:59;29.00;;;20.80;;
66402;SDS011;53212;52.112;5.144;2023-02-13T07:27:25;27.60;;;21.80;;
66402;SDS011;53212;52.112;5.144;2023-02-13T07:29:55;26.50;;;20.70;;
66402;SDS011;53212;52.112;5.144;2023-02-13T07:32:22;27.70;;;20.80;;
66402;SDS011;53212;52.112;5.144;2023-02-13T07:34:49;26.70;;;20.80;;
66402;SDS011;53212;52.112;5.144;2023-02-13T07:37:14;26.90;;;20.50;;
66402;SDS011;53212;52.112;5.144;2023-02-13T07:39:39;29.10;;;21.40;;
66402;SDS011;53212;52.112;5.144;2023-02-13T07:42:05;26.30;;;20.90;;
66402;SDS011;53212;52.112;5.144;2023-02-13T07:44:31;28.80;;;21.20;;
66402;SDS011;53212;52.112;5.144;2023-02-13T07:46:57;27.00;;;21.00;;
66402;SDS011;53212;52.112;5.144;2023-02-13T07:49:23;28.60;;;20.90;;
66402;SDS011;53212;52.112;5.144;2023-02-13T07:51:49;28.80;;;21.30;;
66402;SDS011;53212;52.112;5.144;2023-02-13T07:54:14;28.10;;;21.30;;
66402;SDS011;53212;52.112;5.144;2023-02-13T07:56:40;27.00;;;20.60;;
66402;SDS011;53212;52.112;5.144;2023-02-13T07:59:05;27.40;;;21.20;;
66402;SDS011;53212;52.112;5.144;2023-02-13T08:01:31;29.30;;;22.50;;
66402;SDS011;53212;52.112;5.144;2023-02-13T08:03:56;31.00;;;23.60;;
66402;SDS011;53212;52.112;5.144;2023-02-13T08:06:21;28.30;;;21.90;;
66402;SDS011;53212;52.112;5.144;2023-02-13T08:08:47;30.80;;;22.80;;
66402;SDS011;53212;52.112;5.144;2023-02-13T08:11:30;29.80;;;22.50;;
66402;SDS011;53212;52.112;5.144;2023-02-13T08:14:16;29.90;;;21.60;;
66402;SDS011;53212;52.112;5.144;2023-02-13T08:16:41;31.20;;;23.10;;
66402;SDS011;53212;52.112;5.144;2023-02-13T08:19:07;30.80;;;22.90;;
66402;SDS011;53212;52.112;5.144;2023-02-13T08:21:32;31.20;;;23.30;;
66402;SDS011;53212;52.112;5.144;2023-02-13T08:23:59;31.20;;;22.30;;
66402;SDS011;53212;52.112;5.144;2023-02-13T08:26:25;25.40;;;19.90;;
66402;SDS011;53212;52.112;5.144;2023-02-13T08:28:50;32.30;;;22.70;;
66402;SDS011;53212;52.112;5.144;2023-02-13T08:31:16;30.10;;;22.50;;
66402;SDS011;53212;52.112;5.144;2023-02-13T08:33:41;31.30;;;23.00;;
66402;SDS011;53212;52.112;5.144;2023-02-13T08:36:07;31.60;;;22.60;;
66402;SDS011;53212;52.112;5.144;2023-02-13T08:38:33;27.50;;;21.90;;
66402;SDS011;53212;52.112;5.144;2023-02-13T08:40:59;29.30;;;22.60;;
66402;SDS011;53212;52.112;5.144;2023-02-13T08:43:24;28.90;;;21.40;;
66402;SDS011;53212;52.112;5.144;2023-02-13T08:45:50;30.60;;;22.20;;
66402;SDS011;53212;52.112;5.144;2023-02-13T08:48:15;27.50;;;20.80;;
66402;SDS011;53212;52.112;5.144;2023-02-13T08:50:41;26.40;;;21.60;;
66402;SDS011;53212;52.112;5.144;2023-02-13T08:53:06;28.80;;;21.30;;
66402;SDS011;53212;52.112;5.144;2023-02-13T08:55:32;27.70;;;21.00;;
66402;SDS011;53212;52.112;5.144;2023-02-13T08:58:01;27.10;;;20.80;;
66402;SDS011;53212;52.112;5.144;2023-02-13T09:00:27;27.80;;;21.40;;
66402;SDS011;53212;52.112;5.144;2023-02-13T09:02:53;29.10;;;22.70;;
66402;SDS011;53212;52.112;5.144;2023-02-13T09:05:19;25.90;;;20.80;;
66402;SDS011;53212;52.112;5.144;2023-02-13T09:07:44;27.00;;;22.00;;
66402;SDS011;53212;52.112;5.144;2023-02-13T09:10:10;24.20;;;18.80;;
66402;SDS011;53212;52.112;5.144;2023-02-13T09:12:36;25.40;;;19.70;;
66402;SDS011;53212;52.112;5.144;2023-02-13T09:15:01;26.60;;;20.70;;
66402;SDS011;53212;52.112;5.144;2023-02-13T09:17:28;25.90;;;20.20;;
66402;SDS011;53212;52.112;5.144;2023-02-13T09:19:54;27.00;;;19.50;;
66402;SDS011;53212;52.112;5.144;2023-02-13T09:22:19;26.10;;;19.40;;
66402;SDS011;53212;52.112;5.144;2023-02-13T09:24:45;22.60;;;18.00;;
66402;SDS011;53212;52.112;5.144;2023-02-13T09:27:10;23.00;;;18.30;;
66402;SDS011;53212;52.112;5.144;2023-02-13T09:29:35;22.30;;;18.20;;
66402;SDS011;53212;52.112;5.144;2023-02-13T09:32:01;24.50;;;19.20;;
66402;SDS011;53212;52.112;5.144;2023-02-13T09:34:29;22.30;;;18.10;;
66402;SDS011;53212;52.112;5.144;2023-02-13T09:36:54;23.20;;;19.20;;
66402;SDS011;53212;52.112;5.144;2023-02-13T09:39:19;22.50;;;18.20;;
66402;SDS011;53212;52.112;5.144;2023-02-13T09:41:47;24.20;;;18.30;;
66402;SDS011;53212;52.112;5.144;2023-02-13T09:44:35;22.70;;;18.40;;
66402;SDS011;53212;52.112;5.144;2023-02-13T09:49:53;24.60;;;17.90;;
66402;SDS011;53212;52.112;5.144;2023-02-13T09:52:25;22.60;;;18.00;;
66402;SDS011;53212;52.112;5.144;2023-02-13T09:54:56;21.20;;;17.60;;
66402;SDS011;53212;52.112;5.144;2023-02-13T09:57:33;22.30;;;17.50;;
66402;SDS011;53212;52.112;5.144;2023-02-13T10:00:09;22.60;;;17.50;;
66402;SDS011;53212;52.112;5.144;2023-02-13T10:02:52;22.10;;;18.70;;
66402;SDS011;53212;52.112;5.144;2023-02-13T10:08:40;23.40;;;18.50;;
66402;SDS011;53212;52.112;5.144;2023-02-13T10:11:35;23.40;;;19.40;;
66402;SDS011;53212;52.112;5.144;2023-02-13T10:16:44;22.70;;;17.20;;
66402;SDS011;53212;52.112;5.144;2023-02-13T10:22:34;21.20;;;17.50;;
66402;SDS011;53212;52.112;5.144;2023-02-13T10:25:18;21.40;;;17.00;;
66402;SDS011;53212;52.112;5.144;2023-02-13T10:27:50;21.30;;;17.90;;
66402;SDS011;53212;52.112;5.144;2023-02-13T10:30:52;21.40;;;17.30;;
66402;SDS011;53212;52.112;5.144;2023-02-13T10:36:33;20.80;;;17.00;;
66402;SDS011;53212;52.112;5.144;2023-02-13T10:41:55;19.10;;;15.30;;
66402;SDS011;53212;52.112;5.144;2023-02-13T10:59:03;18.60;;;15.90;;
66402;SDS011;53212;52.112;5.144;2023-02-13T11:01:55;20.40;;;16.20;;
66402;SDS011;53212;52.112;5.144;2023-02-13T11:04:25;20.20;;;16.40;;
66402;SDS011;53212;52.112;5.144;2023-02-13T11:06:55;18.60;;;16.40;;
66402;SDS011;53212;52.112;5.144;2023-02-13T11:09:26;20.90;;;17.20;;
66402;SDS011;53212;52.112;5.144;2023-02-13T11:11:53;22.30;;;16.90;;
66402;SDS011;53212;52.112;5.144;2023-02-13T11:14:23;21.80;;;16.00;;
66402;SDS011;53212;52.112;5.144;2023-02-13T11:17:04;19.70;;;15.10;;
66402;SDS011;53212;52.112;5.144;2023-02-13T11:19:51;21.10;;;15.50;;
66402;SDS011;53212;52.112;5.144;2023-02-13T11:22:37;18.70;;;15.60;;
66402;SDS011;53212;52.112;5.144;2023-02-13T11:25:24;18.20;;;15.20;;
66402;SDS011;53212;52.112;5.144;2023-02-13T11:27:54;16.80;;;13.60;;
66402;SDS011;53212;52.112;5.144;2023-02-13T11:30:35;17.10;;;14.70;;
66402;SDS011;53212;52.112;5.144;2023-02-13T11:35:40;16.80;;;13.50;;
66402;SDS011;53212;52.112;5.144;2023-02-13T11:40:41;17.10;;;13.00;;
66402;SDS011;53212;52.112;5.144;2023-02-13T11:43:28;18.30;;;14.60;;
66402;SDS011;53212;52.112;5.144;2023-02-13T11:46:06;15.80;;;13.90;;
66402;SDS011;53212;52.112;5.144;2023-02-13T11:48:38;17.80;;;14.20;;
66402;SDS011;53212;52.112;5.144;2023-02-13T11:51:04;17.30;;;14.10;;
66402;SDS011;53212;52.112;5.144;2023-02-13T11:53:39;17.10;;;14.10;;
66402;SDS011;53212;52.112;5.144;2023-02-13T11:56:14;16.70;;;13.40;;
66402;SDS011;53212;52.112;5.144;2023-02-13T11:58:40;16.50;;;13.70;;
66402;SDS011;53212;52.112;5.144;2023-02-13T12:01:27;16.70;;;14.50;;
66402;SDS011;53212;52.112;5.144;2023-02-13T12:04:05;16.80;;;14.50;;
66402;SDS011;53212;52.112;5.144;2023-02-13T12:06:40;17.30;;;13.70;;
66402;SDS011;53212;52.112;5.144;2023-02-13T12:09:25;16.80;;;13.70;;
66402;SDS011;53212;52.112;5.144;2023-02-13T12:11:53;18.10;;;13.60;;
66402;SDS011;53212;52.112;5.144;2023-02-13T12:14:24;17.60;;;14.50;;
66402;SDS011;53212;52.112;5.144;2023-02-13T12:16:59;17.00;;;14.50;;
66402;SDS011;53212;52.112;5.144;2023-02-13T12:19:37;17.50;;;14.70;;
66402;SDS011;53212;52.112;5.144;2023-02-13T12:22:25;18.20;;;15.00;;
66402;SDS011;53212;52.112;5.144;2023-02-13T12:28:04;18.30;;;14.50;;
66402;SDS011;53212;52.112;5.144;2023-02-13T12:36:38;15.70;;;13.60;;
66402;SDS011;53212;52.112;5.144;2023-02-13T12:39:30;15.00;;;13.10;;
66402;SDS011;53212;52.112;5.144;2023-02-13T12:45:20;15.60;;;12.80;;
66402;SDS011;53212;52.112;5.144;2023-02-13T12:54:07;19.60;;;15.40;;
66402;SDS011;53212;52.112;5.144;2023-02-13T12:59:52;19.20;;;15.60;;
66402;SDS011;53212;52.112;5.144;2023-02-13T13:05:31;16.90;;;13.60;;
66402;SDS011;53212;52.112;5.144;2023-02-13T13:29:27;16.50;;;14.00;;
66402;SDS011;53212;52.112;5.144;2023-02-13T13:32:06;17.80;;;15.00;;
66402;SDS011;53212;52.112;5.144;2023-02-13T13:34:33;17.00;;;14.60;;
66402;SDS011;53212;52.112;5.144;2023-02-13T13:39:52;17.20;;;14.30;;
66402;SDS011;53212;52.112;5.144;2023-02-13T13:45:24;17.50;;;14.20;;
66402;SDS011;53212;52.112;5.144;2023-02-13T13:50:44;16.60;;;13.70;;
66402;SDS011;53212;52.112;5.144;2023-02-13T13:58:36;17.00;;;14.00;;
66402;SDS011;53212;52.112;5.144;2023-02-13T14:01:26;16.90;;;14.40;;
66402;SDS011;53212;52.112;5.144;2023-02-13T14:11:52;16.90;;;13.80;;
66402;SDS011;53212;52.112;5.144;2023-02-13T14:16:57;18.20;;;14.10;;
66402;SDS011;53212;52.112;5.144;2023-02-13T14:19:36;15.40;;;12.90;;
66402;SDS011;53212;52.112;5.144;2023-02-13T14:24:55;17.90;;;13.60;;
66402;SDS011;53212;52.112;5.144;2023-02-13T14:27:24;15.40;;;13.80;;
66402;SDS011;53212;52.112;5.144;2023-02-13T14:29:52;15.20;;;13.10;;
66402;SDS011;53212;52.112;5.144;2023-02-13T14:32:30;16.70;;;14.00;;
66402;SDS011;53212;52.112;5.144;2023-02-13T14:35:17;16.40;;;13.50;;
66402;SDS011;53212;52.112;5.144;2023-02-13T14:37:54;17.80;;;13.10;;
66402;SDS011;53212;52.112;5.144;2023-02-13T14:40:29;14.60;;;12.90;;
66402;SDS011;53212;52.112;5.144;2023-02-13T14:43:18;15.30;;;13.50;;
66402;SDS011;53212;52.112;5.144;2023-02-13T14:46:13;15.00;;;13.40;;
66402;SDS011;53212;52.112;5.144;2023-02-13T14:48:51;16.30;;;13.70;;
66402;SDS011;53212;52.112;5.144;2023-02-13T14:51:34;13.90;;;12.40;;
66402;SDS011;53212;52.112;5.144;2023-02-13T14:54:25;15.80;;;13.80;;
66402;SDS011;53212;52.112;5.144;2023-02-13T14:57:02;16.20;;;14.50;;
66402;SDS011;53212;52.112;5.144;2023-02-13T15:06:51;18.90;;;15.50;;
66402;SDS011;53212;52.112;5.144;2023-02-13T15:08:53;16.00;;;14.10;;
66402;SDS011;53212;52.112;5.144;2023-02-13T15:11:38;17.20;;;14.90;;
66402;SDS011;53212;52.112;5.144;2023-02-13T15:17:13;17.70;;;14.50;;
66402;SDS011;53212;52.112;5.144;2023-02-13T15:19:50;17.00;;;14.30;;
66402;SDS011;53212;52.112;5.144;2023-02-13T15:22:51;17.30;;;14.30;;
66402;SDS011;53212;52.112;5.144;2023-02-13T15:25:43;17.60;;;14.70;;
66402;SDS011;53212;52.112;5.144;2023-02-13T15:28:19;17.70;;;15.70;;
66402;SDS011;53212;52.112;5.144;2023-02-13T15:31:02;16.10;;;13.80;;
66402;SDS011;53212;52.112;5.144;2023-02-13T15:33:49;15.60;;;13.30;;
66402;SDS011;53212;52.112;5.144;2023-02-13T15:36:21;18.30;;;13.90;;
66402;SDS011;53212;52.112;5.144;2023-02-13T15:39:05;15.20;;;13.60;;
66402;SDS011;53212;52.112;5.144;2023-02-13T15:41:38;16.60;;;14.30;;
66402;SDS011;53212;52.112;5.144;2023-02-13T15:44:06;17.00;;;15.10;;
66402;SDS011;53212;52.112;5.144;2023-02-13T15:46:41;17.70;;;15.30;;
66402;SDS011;53212;52.112;5.144;2023-02-13T15:49:14;19.50;;;16.00;;
66402;SDS011;53212;52.112;5.144;2023-02-13T15:51:42;17.90;;;15.60;;
66402;SDS011;53212;52.112;5.144;2023-02-13T15:56:57;17.00;;;15.00;;
66402;SDS011;53212;52.112;5.144;2023-02-13T16:02:00;17.50;;;13.80;;
66402;SDS011;53212;52.112;5.144;2023-02-13T16:04:27;15.80;;;13.70;;
66402;SDS011;53212;52.112;5.144;2023-02-13T16:06:54;16.90;;;15.10;;
66402;SDS011;53212;52.112;5.144;2023-02-13T16:09:32;18.00;;;15.20;;
66402;SDS011;53212;52.112;5.144;2023-02-13T16:12:15;17.80;;;15.20;;
66402;SDS011;53212;52.112;5.144;2023-02-13T16:14:56;18.50;;;14.90;;
66402;SDS011;53212;52.112;5.144;2023-02-13T16:17:36;17.30;;;14.20;;
66402;SDS011;53212;52.112;5.144;2023-02-13T16:20:06;18.20;;;14.30;;
66402;SDS011;53212;52.112;5.144;2023-02-13T16:22:51;17.50;;;15.60;;
66402;SDS011;53212;52.112;5.144;2023-02-13T16:25:33;17.60;;;13.20;;
66402;SDS011;53212;52.112;5.144;2023-02-13T16:46:32;13.30;;;11.70;;
66402;SDS011;53212;52.112;5.144;2023-02-13T16:51:48;20.00;;;15.90;;
66402;SDS011;53212;52.112;5.144;2023-02-13T16:54:22;17.80;;;15.30;;
66402;SDS011;53212;52.112;5.144;2023-02-13T16:56:59;21.00;;;17.20;;
66402;SDS011;53212;52.112;5.144;2023-02-13T16:59:37;19.40;;;16.50;;
66402;SDS011;53212;52.112;5.144;2023-02-13T17:02:14;14.60;;;11.30;;
66402;SDS011;53212;52.112;5.144;2023-02-13T17:07:37;14.60;;;12.00;;
66402;SDS011;53212;52.112;5.144;2023-02-13T17:10:07;13.00;;;10.60;;
66402;SDS011;53212;52.112;5.144;2023-02-13T17:12:44;15.90;;;12.60;;
66402;SDS011;53212;52.112;5.144;2023-02-13T17:15:15;17.20;;;12.80;;
66402;SDS011;53212;52.112;5.144;2023-02-13T17:17:44;14.80;;;12.20;;
66402;SDS011;53212;52.112;5.144;2023-02-13T17:20:27;12.20;;;10.20;;
66402;SDS011;53212;52.112;5.144;2023-02-13T17:22:57;15.50;;;12.70;;
66402;SDS011;53212;52.112;5.144;2023-02-13T17:25:42;16.20;;;13.60;;
66402;SDS011;53212;52.112;5.144;2023-02-13T17:28:15;19.10;;;15.40;;
66402;SDS011;53212;52.112;5.144;2023-02-13T17:30:43;18.20;;;15.10;;
66402;SDS011;53212;52.112;5.144;2023-02-13T17:33:21;17.10;;;14.50;;
66402;SDS011;53212;52.112;5.144;2023-02-13T17:35:49;19.90;;;15.90;;
66402;SDS011;53212;52.112;5.144;2023-02-13T17:38:15;20.00;;;16.00;;
66402;SDS011;53212;52.112;5.144;2023-02-13T17:40:42;18.70;;;16.40;;
66402;SDS011;53212;52.112;5.144;2023-02-13T17:43:12;21.70;;;16.80;;
66402;SDS011;53212;52.112;5.144;2023-02-13T17:45:39;21.40;;;17.30;;
66402;SDS011;53212;52.112;5.144;2023-02-13T17:48:05;21.60;;;17.60;;
66402;SDS011;53212;52.112;5.144;2023-02-13T17:50:32;19.90;;;16.40;;
66402;SDS011;53212;52.112;5.144;2023-02-13T17:53:25;21.50;;;16.90;;
66402;SDS011;53212;52.112;5.144;2023-02-13T17:55:54;20.00;;;15.70;;
66402;SDS011;53212;52.112;5.144;2023-02-13T17:58:20;20.40;;;16.90;;
66402;SDS011;53212;52.112;5.144;2023-02-13T18:00:45;19.90;;;17.00;;
66402;SDS011;53212;52.112;5.144;2023-02-13T18:03:11;21.90;;;17.00;;
66402;SDS011;53212;52.112;5.144;2023-02-13T18:05:38;21.40;;;16.90;;